createdAt,value
2017-09-29T00:01:32.851Z,39.87
2017-09-29T00:03:59.604Z,43.20
2017-09-29T00:06:27.117Z,42.17
2017-09-29T00:08:53.868Z,42.87
2017-09-29T00:11:20.626Z,42.47
2017-09-29T00:13:47.465Z,43.13
2017-09-29T00:16:14.224Z,44.70
2017-09-29T00:18:40.991Z,44.90
2017-09-29T00:21:07.784Z,44.13
2017-09-29T00:23:34.545Z,46.07
2017-09-29T00:26:01.302Z,47.67
2017-09-29T00:28:28.083Z,44.30
2017-09-29T00:30:54.888Z,45.27
2017-09-29T00:33:21.677Z,44.87
2017-09-29T00:35:48.499Z,43.77
2017-09-29T00:38:15.274Z,44.50
2017-09-29T00:40:42.087Z,42.97
2017-09-29T00:43:08.898Z,45.93
2017-09-29T00:45:36.428Z,49.10
2017-09-29T00:48:03.240Z,47.97
2017-09-29T00:50:30.074Z,46.40
2017-09-29T00:52:56.836Z,43.93
2017-09-29T00:55:23.600Z,44.47
2017-09-29T00:57:50.490Z,42.73
2017-09-29T01:00:17.302Z,41.27
2017-09-29T01:02:44.093Z,41.57
2017-09-29T01:05:10.938Z,40.00
2017-09-29T01:07:37.697Z,40.50
2017-09-29T01:10:04.513Z,40.67
2017-09-29T01:12:31.900Z,42.67
2017-09-29T01:14:58.683Z,40.27
2017-09-29T01:17:25.463Z,43.47
2017-09-29T01:19:52.294Z,41.07
2017-09-29T01:22:19.094Z,39.87
2017-09-29T01:24:46.333Z,42.30
2017-09-29T01:27:13.165Z,42.60
2017-09-29T01:29:39.923Z,39.70
2017-09-29T01:32:06.716Z,37.97
2017-09-29T01:34:33.550Z,42.60
2017-09-29T01:37:00.952Z,40.30
2017-09-29T01:39:27.746Z,43.73
2017-09-29T01:41:54.570Z,41.60
2017-09-29T01:44:21.370Z,40.30
2017-09-29T01:46:48.170Z,40.43
2017-09-29T01:49:14.996Z,38.77
2017-09-29T01:51:41.777Z,40.73
2017-09-29T01:54:08.579Z,40.00
2017-09-29T01:56:35.442Z,39.20
2017-09-29T01:59:02.243Z,38.60
2017-09-29T02:01:29.046Z,41.00
2017-09-29T02:03:55.872Z,38.23
2017-09-29T02:06:23.260Z,39.47
2017-09-29T02:08:50.047Z,37.70
2017-09-29T02:11:16.866Z,37.07
2017-09-29T02:13:43.644Z,39.60
2017-09-29T02:16:10.467Z,40.17
2017-09-29T02:18:37.312Z,38.67
2017-09-29T02:21:04.118Z,38.37
2017-09-29T02:23:31.070Z,37.77
2017-09-29T02:25:57.913Z,36.70
2017-09-29T02:28:24.687Z,36.53
2017-09-29T02:30:51.510Z,39.10
2017-09-29T02:33:18.356Z,35.70
2017-09-29T02:35:45.171Z,37.60
2017-09-29T02:38:11.958Z,37.17
2017-09-29T02:40:39.477Z,35.97
2017-09-29T02:43:06.280Z,36.40
2017-09-29T02:45:33.068Z,37.50
2017-09-29T02:48:00.505Z,37.97
2017-09-29T02:50:27.310Z,36.50
2017-09-29T02:52:54.098Z,36.70
2017-09-29T02:55:21.888Z,35.37
2017-09-29T02:57:49.865Z,34.97
2017-09-29T03:00:17.424Z,35.30
2017-09-29T03:02:45.389Z,37.93
2017-09-29T03:05:13.671Z,33.80
2017-09-29T03:07:41.400Z,37.27
2017-09-29T03:10:08.238Z,34.40
2017-09-29T03:12:34.998Z,34.93
2017-09-29T03:15:01.760Z,34.97
2017-09-29T03:17:28.577Z,35.63
2017-09-29T03:19:56.152Z,34.60
2017-09-29T03:22:22.926Z,35.70
2017-09-29T03:24:50.105Z,32.93
2017-09-29T03:27:16.902Z,34.70
2017-09-29T03:29:43.650Z,34.03
2017-09-29T03:32:10.477Z,34.33
2017-09-29T03:34:37.273Z,33.03
2017-09-29T03:37:04.071Z,33.50
2017-09-29T03:39:30.860Z,35.07
2017-09-29T03:41:57.619Z,33.17
2017-09-29T03:44:24.437Z,35.90
2017-09-29T03:46:51.239Z,34.10
2017-09-29T03:49:18.011Z,35.90
2017-09-29T03:51:46.299Z,34.23
2017-09-29T03:54:14.166Z,31.57
2017-09-29T03:56:43.024Z,32.70
2017-09-29T03:59:11.283Z,32.07
2017-09-29T04:01:38.134Z,32.90
2017-09-29T04:04:05.251Z,30.97
2017-09-29T04:06:32.018Z,31.40
2017-09-29T04:08:58.825Z,32.30
2017-09-29T04:11:25.607Z,32.00
2017-09-29T04:13:52.426Z,31.10
2017-09-29T04:16:19.845Z,29.90
2017-09-29T04:18:46.733Z,33.50
2017-09-29T04:21:13.544Z,30.90
2017-09-29T04:23:40.373Z,32.50
2017-09-29T04:26:07.151Z,31.50
2017-09-29T04:28:33.911Z,29.67
2017-09-29T04:31:01.418Z,30.50
2017-09-29T04:33:28.199Z,32.20
2017-09-29T04:35:54.969Z,31.97
2017-09-29T04:38:21.778Z,29.83
2017-09-29T04:40:48.565Z,30.07
2017-09-29T04:43:15.350Z,32.60
2017-09-29T04:45:42.145Z,34.27
2017-09-29T04:48:08.960Z,31.57
2017-09-29T04:50:36.410Z,35.67
2017-09-29T04:53:03.212Z,35.00
2017-09-29T04:55:29.975Z,38.17
2017-09-29T04:57:56.739Z,36.03
2017-09-29T05:00:23.560Z,37.27
2017-09-29T05:02:50.335Z,36.63
2017-09-29T05:05:17.114Z,41.60
2017-09-29T05:07:43.930Z,37.97
2017-09-29T05:10:11.352Z,40.60
2017-09-29T05:12:38.163Z,39.27
2017-09-29T05:15:04.951Z,40.17
2017-09-29T05:17:31.738Z,41.00
2017-09-29T05:19:58.503Z,41.13
2017-09-29T05:22:25.338Z,39.70
2017-09-29T05:24:52.261Z,39.73
2017-09-29T05:27:19.031Z,42.90
2017-09-29T05:29:45.827Z,39.07
2017-09-29T05:32:12.607Z,41.37
2017-09-29T05:34:39.418Z,38.80
2017-09-29T05:37:06.219Z,38.90
2017-09-29T05:39:32.994Z,40.97
2017-09-29T05:41:59.747Z,41.50
2017-09-29T05:44:26.556Z,41.07
2017-09-29T05:46:53.345Z,41.40
2017-09-29T05:49:20.143Z,41.57
2017-09-29T05:51:46.951Z,42.57
2017-09-29T05:54:13.708Z,43.07
2017-09-29T05:56:40.818Z,40.97
2017-09-29T05:59:07.627Z,41.60
2017-09-29T06:01:34.389Z,38.70
2017-09-29T06:04:01.752Z,36.33
2017-09-29T06:06:28.567Z,34.20
2017-09-29T06:08:55.380Z,34.20
2017-09-29T06:11:22.139Z,34.20
2017-09-29T06:13:48.939Z,31.60
2017-09-29T06:16:15.689Z,34.90
2017-09-29T06:18:42.472Z,32.87
2017-09-29T06:21:10.027Z,33.67
2017-09-29T06:23:36.806Z,33.50
2017-09-29T06:26:03.931Z,35.90
2017-09-29T06:28:30.780Z,35.10
2017-09-29T06:30:57.548Z,33.37
2017-09-29T06:33:24.322Z,34.03
2017-09-29T06:35:51.112Z,35.40
2017-09-29T06:38:17.859Z,36.47
2017-09-29T06:40:44.629Z,39.57
2017-09-29T06:43:11.443Z,34.97
2017-09-29T06:45:38.204Z,35.33
2017-09-29T06:48:04.996Z,33.20
2017-09-29T06:50:31.798Z,34.60
2017-09-29T06:52:58.576Z,36.30
2017-09-29T06:55:25.414Z,34.83
2017-09-29T06:57:52.212Z,37.73
2017-09-29T07:00:20.273Z,34.77
2017-09-29T07:02:47.046Z,35.03
2017-09-29T07:05:13.853Z,32.30
2017-09-29T07:07:41.379Z,33.10
2017-09-29T07:10:08.150Z,33.37
2017-09-29T07:12:34.962Z,32.60
2017-09-29T07:15:01.737Z,34.47
2017-09-29T07:17:28.544Z,33.40
2017-09-29T07:19:55.335Z,32.57
2017-09-29T07:22:22.215Z,33.70
2017-09-29T07:24:50.263Z,32.73
2017-09-29T07:27:19.816Z,31.40
2017-09-29T07:29:47.433Z,31.77
2017-09-29T07:32:15.845Z,32.43
2017-09-29T07:34:42.698Z,31.60
2017-09-29T07:37:10.136Z,29.47
2017-09-29T07:39:36.918Z,32.87
2017-09-29T07:42:03.770Z,35.30
2017-09-29T07:44:30.520Z,36.20
2017-09-29T07:46:58.045Z,32.70
2017-09-29T07:49:25.125Z,32.20
2017-09-29T07:51:51.879Z,31.67
2017-09-29T07:54:18.666Z,30.63
2017-09-29T07:56:47.006Z,31.10
2017-09-29T07:59:13.767Z,31.53
2017-09-29T08:01:40.549Z,33.57
2017-09-29T08:04:07.351Z,33.57
2017-09-29T08:06:34.149Z,34.57
2017-09-29T08:09:00.907Z,33.83
2017-09-29T08:11:27.702Z,32.73
2017-09-29T08:13:54.486Z,33.77
2017-09-29T08:16:21.607Z,35.27
2017-09-29T08:18:48.430Z,33.10
2017-09-29T08:21:15.212Z,32.57
2017-09-29T08:23:41.986Z,31.90
2017-09-29T08:26:08.813Z,31.27
2017-09-29T08:28:35.606Z,30.10
2017-09-29T08:31:02.359Z,30.67
2017-09-29T08:33:29.162Z,30.57
2017-09-29T08:35:55.939Z,32.00
2017-09-29T08:38:22.685Z,30.50
2017-09-29T08:40:49.915Z,30.70
2017-09-29T08:43:16.697Z,31.10
2017-09-29T08:45:43.480Z,31.70
2017-09-29T08:48:10.307Z,30.73
2017-09-29T08:50:37.086Z,31.27
2017-09-29T08:53:03.878Z,29.77
2017-09-29T08:55:30.687Z,30.70
2017-09-29T08:57:57.439Z,31.97
2017-09-29T09:00:25.315Z,32.40
2017-09-29T09:02:52.130Z,31.10
2017-09-29T09:05:18.869Z,33.47
2017-09-29T09:07:45.627Z,31.53
2017-09-29T09:10:12.408Z,31.33
2017-09-29T09:12:39.174Z,31.00
2017-09-29T09:15:05.949Z,31.40
2017-09-29T09:17:32.798Z,31.50
2017-09-29T09:19:59.598Z,31.17
2017-09-29T09:22:26.380Z,31.50
2017-09-29T09:24:53.177Z,30.37
2017-09-29T09:27:19.932Z,30.10
2017-09-29T09:32:21.670Z,32.43
2017-09-29T09:34:48.433Z,29.60
2017-09-29T09:37:15.194Z,30.30
2017-09-29T09:39:42.005Z,31.30
2017-09-29T09:42:08.759Z,32.03
2017-09-29T09:44:35.547Z,31.27
2017-09-29T09:47:02.354Z,32.87
2017-09-29T09:49:29.104Z,32.77
2017-09-29T09:51:55.941Z,32.50
2017-09-29T09:54:23.123Z,29.90
2017-09-29T09:59:23.001Z,30.83
2017-09-29T10:01:50.081Z,33.10
2017-09-29T10:04:16.850Z,31.40
2017-09-29T10:06:43.630Z,33.73
2017-09-29T10:09:10.410Z,32.57
2017-09-29T10:11:37.179Z,29.77
2017-09-29T10:14:03.975Z,31.43
2017-09-29T10:16:30.742Z,35.20
2017-09-29T10:18:57.519Z,31.40
2017-09-29T10:21:24.327Z,33.20
2017-09-29T10:23:51.111Z,30.87
2017-09-29T10:26:18.174Z,30.90
2017-09-29T10:28:44.983Z,32.73
2017-09-29T10:31:11.732Z,32.83
2017-09-29T10:33:38.522Z,28.63
2017-09-29T10:36:06.378Z,31.57
2017-09-29T10:38:33.146Z,34.30
2017-09-29T10:41:00.563Z,32.80
2017-09-29T10:43:27.396Z,30.00
2017-09-29T10:45:54.157Z,29.40
2017-09-29T10:48:20.918Z,28.93
2017-09-29T10:50:47.741Z,31.40
2017-09-29T10:53:14.613Z,31.50
2017-09-29T10:55:41.360Z,31.40
2017-09-29T10:58:08.180Z,31.47
2017-09-29T11:00:34.953Z,30.87
2017-09-29T11:03:02.290Z,32.80
2017-09-29T11:05:29.096Z,30.60
2017-09-29T11:07:55.870Z,30.23
2017-09-29T11:10:23.426Z,31.43
2017-09-29T11:12:50.202Z,31.70
2017-09-29T11:15:16.945Z,33.40
2017-09-29T11:17:43.703Z,31.87
2017-09-29T11:20:10.639Z,31.80
2017-09-29T11:22:37.394Z,30.97
2017-09-29T11:25:04.831Z,31.10
2017-09-29T11:27:31.612Z,30.43
2017-09-29T11:29:58.423Z,30.70
2017-09-29T11:32:25.185Z,33.30
2017-09-29T11:34:51.999Z,30.07
2017-09-29T11:37:18.774Z,30.43
2017-09-29T11:39:45.528Z,29.03
2017-09-29T11:42:12.347Z,29.03
2017-09-29T11:44:39.107Z,29.50
2017-09-29T11:47:05.884Z,29.63
2017-09-29T11:49:33.244Z,31.63
2017-09-29T11:52:00.022Z,29.03
2017-09-29T11:54:26.790Z,30.80
2017-09-29T11:56:54.627Z,29.97
2017-09-29T11:59:21.389Z,30.70
2017-09-29T12:01:48.197Z,29.57
2017-09-29T12:04:15.068Z,29.17
2017-09-29T12:06:41.835Z,28.30
2017-09-29T12:09:08.605Z,28.93
2017-09-29T12:11:35.399Z,30.17
2017-09-29T12:14:02.258Z,29.80
2017-09-29T12:16:29.034Z,32.93
2017-09-29T12:18:56.573Z,31.10
2017-09-29T12:21:23.343Z,32.07
2017-09-29T12:23:50.118Z,29.57
2017-09-29T12:26:16.914Z,30.87
2017-09-29T12:28:43.674Z,30.83
2017-09-29T12:31:10.454Z,29.87
2017-09-29T12:33:37.282Z,31.17
2017-09-29T12:36:04.055Z,30.70
2017-09-29T12:38:30.805Z,29.37
2017-09-29T12:40:57.601Z,28.80
2017-09-29T12:43:24.390Z,29.27
2017-09-29T12:45:51.152Z,29.80
2017-09-29T12:48:18.028Z,28.87
2017-09-29T12:50:44.843Z,27.97
2017-09-29T12:53:11.630Z,30.10
2017-09-29T12:55:38.434Z,30.23
2017-09-29T12:58:05.229Z,30.53
2017-09-29T13:00:31.981Z,29.63
2017-09-29T13:02:58.760Z,29.70
2017-09-29T13:05:25.543Z,29.47
2017-09-29T13:07:52.322Z,29.93
2017-09-29T13:10:19.133Z,30.17
2017-09-29T13:12:45.907Z,28.10
2017-09-29T13:15:12.663Z,26.87
2017-09-29T13:17:39.470Z,30.43
2017-09-29T13:20:06.320Z,28.67
2017-09-29T13:22:33.106Z,31.20
2017-09-29T13:24:59.910Z,29.07
2017-09-29T13:27:26.718Z,29.57
2017-09-29T13:29:54.182Z,27.50
2017-09-29T13:32:20.975Z,30.83
2017-09-29T13:34:48.488Z,29.63
2017-09-29T13:37:15.267Z,28.77
2017-09-29T13:39:42.072Z,30.40
2017-09-29T13:42:08.844Z,29.60
2017-09-29T13:44:35.628Z,30.80
2017-09-29T13:47:02.454Z,32.23
2017-09-29T13:49:29.215Z,30.30
2017-09-29T13:51:55.995Z,31.57
2017-09-29T13:54:22.779Z,31.63
2017-09-29T13:56:49.582Z,30.93
2017-09-29T13:59:16.354Z,33.67
2017-09-29T14:01:43.178Z,32.47
2017-09-29T14:04:11.025Z,33.27
2017-09-29T14:06:37.810Z,32.33
2017-09-29T14:09:04.618Z,32.57
2017-09-29T14:11:31.387Z,32.67
2017-09-29T14:13:58.159Z,31.57
2017-09-29T14:16:24.965Z,32.10
2017-09-29T14:18:51.782Z,32.10
2017-09-29T14:21:18.550Z,31.40
2017-09-29T14:23:45.340Z,33.30
2017-09-29T14:26:12.134Z,32.43
2017-09-29T14:28:38.911Z,30.60
2017-09-29T14:31:05.734Z,32.47
2017-09-29T14:33:32.522Z,30.87
2017-09-29T14:35:59.315Z,31.80
2017-09-29T14:38:26.147Z,31.07
2017-09-29T14:40:53.227Z,30.20
2017-09-29T14:43:20.084Z,30.37
2017-09-29T14:45:46.874Z,32.33
2017-09-29T14:48:13.658Z,31.97
2017-09-29T14:50:40.687Z,30.80
2017-09-29T14:53:07.476Z,33.07
2017-09-29T14:55:34.241Z,32.87
2017-09-29T14:58:00.996Z,31.33
2017-09-29T15:00:27.799Z,32.57
2017-09-29T15:02:54.570Z,32.27
2017-09-29T15:05:21.343Z,30.60
2017-09-29T15:07:48.186Z,31.97
2017-09-29T15:10:14.999Z,32.10
2017-09-29T15:12:41.767Z,32.03
2017-09-29T15:15:08.579Z,33.20
2017-09-29T15:17:35.344Z,31.70
2017-09-29T15:20:02.091Z,29.90
2017-09-29T15:22:28.876Z,32.03
2017-09-29T15:24:55.638Z,30.07
2017-09-29T15:27:22.501Z,31.03
2017-09-29T15:29:49.302Z,31.23
2017-09-29T15:32:16.071Z,31.77
2017-09-29T15:34:42.817Z,30.97
2017-09-29T15:37:09.619Z,31.20
2017-09-29T15:39:36.378Z,31.10
2017-09-29T15:42:03.152Z,31.40
2017-09-29T15:44:29.946Z,31.00
2017-09-29T15:46:56.762Z,27.33
2017-09-29T15:49:24.262Z,31.03
2017-09-29T15:51:51.093Z,31.00
2017-09-29T15:54:18.056Z,31.07
2017-09-29T15:56:45.803Z,28.60
2017-09-29T15:59:13.853Z,29.23
2017-09-29T16:01:40.672Z,27.67
2017-09-29T16:04:07.475Z,28.20
2017-09-29T16:06:34.623Z,29.50
2017-09-29T16:09:01.386Z,29.63
2017-09-29T16:11:28.168Z,28.97
2017-09-29T16:13:55.004Z,28.60
2017-09-29T16:16:21.787Z,30.37
2017-09-29T16:18:48.565Z,28.90
2017-09-29T16:21:15.389Z,28.97
2017-09-29T16:23:42.178Z,30.17
2017-09-29T16:26:09.000Z,30.10
2017-09-29T16:28:35.807Z,28.77
2017-09-29T16:31:02.572Z,29.27
2017-09-29T16:33:29.357Z,32.33
2017-09-29T16:35:56.210Z,29.80
2017-09-29T16:38:22.999Z,29.93
2017-09-29T16:40:49.772Z,28.60
2017-09-29T16:43:16.564Z,29.67
2017-09-29T16:45:43.335Z,30.07
2017-09-29T16:48:10.183Z,29.53
2017-09-29T16:50:36.990Z,31.20
2017-09-29T16:53:03.758Z,30.77
2017-09-29T16:55:30.532Z,31.00
2017-09-29T16:57:57.319Z,30.97
2017-09-29T17:00:24.686Z,31.47
2017-09-29T17:02:51.440Z,33.13
2017-09-29T17:05:18.234Z,30.93
2017-09-29T17:07:44.986Z,33.73
2017-09-29T17:10:11.751Z,32.57
2017-09-29T17:12:38.551Z,31.87
2017-09-29T17:15:05.322Z,31.37
2017-09-29T17:17:32.447Z,31.67
2017-09-29T17:19:59.691Z,33.20
2017-09-29T17:22:26.490Z,33.20
2017-09-29T17:24:53.262Z,34.40
2017-09-29T17:27:20.048Z,34.80
2017-09-29T17:29:46.799Z,34.17
2017-09-29T17:32:13.573Z,33.20
2017-09-29T17:34:40.375Z,34.50
2017-09-29T17:37:07.895Z,33.63
2017-09-29T17:39:34.675Z,32.90
2017-09-29T17:42:01.497Z,31.60
2017-09-29T17:44:28.748Z,32.73
2017-09-29T17:46:55.561Z,34.27
2017-09-29T17:49:22.374Z,35.85
2017-09-29T17:51:49.482Z,37.10
2017-09-29T17:54:16.229Z,37.80
2017-09-29T17:56:43.019Z,37.35
2017-09-29T17:59:10.032Z,36.28
2017-09-29T18:01:36.888Z,37.83
2017-09-29T18:04:04.420Z,36.53
2017-09-29T18:06:31.198Z,36.23
2017-09-29T18:08:57.982Z,36.80
2017-09-29T18:11:24.784Z,37.20
2017-09-29T18:13:52.182Z,36.38
2017-09-29T18:16:18.998Z,36.92
2017-09-29T18:18:45.820Z,35.95
2017-09-29T18:21:12.639Z,35.10
2017-09-29T18:23:39.423Z,36.03
2017-09-29T18:26:06.783Z,36.15
2017-09-29T18:28:33.548Z,35.75
2017-09-29T18:31:00.322Z,34.15
2017-09-29T18:33:27.130Z,35.40
2017-09-29T18:35:53.888Z,34.70
2017-09-29T18:38:20.655Z,33.37
2017-09-29T18:40:48.159Z,33.33
2017-09-29T18:43:15.892Z,33.17
2017-09-29T18:45:52.775Z,32.45
2017-09-29T18:48:19.570Z,29.50
2017-09-29T18:50:46.547Z,28.35
2017-09-29T18:53:13.343Z,28.83
2017-09-29T18:55:40.093Z,28.10
2017-09-29T18:58:06.876Z,28.87
2017-09-29T19:00:33.858Z,27.60
2017-09-29T19:03:00.637Z,27.27
2017-09-29T19:05:27.396Z,27.13
2017-09-29T19:07:54.242Z,27.90
2017-09-29T19:10:21.040Z,24.77
2017-09-29T19:12:47.835Z,25.33
2017-09-29T19:15:14.622Z,24.47
2017-09-29T19:17:41.429Z,24.90
2017-09-29T19:20:08.234Z,27.43
2017-09-29T19:22:35.023Z,24.60
2017-09-29T19:25:01.788Z,25.33
2017-09-29T19:27:28.593Z,26.60
2017-09-29T19:29:55.407Z,27.00
2017-09-29T19:32:22.456Z,26.55
2017-09-29T19:34:50.022Z,25.10
2017-09-29T19:37:17.802Z,26.30
2017-09-29T19:39:44.575Z,26.80
2017-09-29T19:42:11.356Z,26.05
2017-09-29T19:44:38.179Z,26.90
2017-09-29T19:47:04.935Z,24.70
2017-09-29T19:49:31.702Z,24.73
2017-09-29T19:51:58.547Z,26.08
2017-09-29T19:54:25.322Z,24.10
2017-09-29T19:56:52.090Z,25.48
2017-09-29T19:59:18.973Z,24.80
2017-09-29T20:01:46.088Z,24.58
2017-09-29T20:04:12.859Z,25.77
2017-09-29T20:06:39.794Z,24.40
2017-09-29T20:09:06.615Z,24.30
2017-09-29T20:11:33.399Z,25.70
2017-09-29T20:14:00.218Z,24.87
2017-09-29T20:16:26.971Z,24.63
2017-09-29T20:18:53.734Z,24.00
2017-09-29T20:21:20.540Z,22.70
2017-09-29T20:23:47.314Z,23.50
2017-09-29T20:26:14.059Z,21.17
2017-09-29T20:28:40.886Z,22.37
2017-09-29T20:31:07.637Z,22.73
2017-09-29T20:33:34.389Z,22.40
2017-09-29T20:36:01.196Z,22.60
2017-09-29T20:38:27.971Z,22.37
2017-09-29T20:40:54.723Z,20.40
2017-09-29T20:43:21.542Z,22.43
2017-09-29T20:45:48.328Z,20.67
2017-09-29T20:48:15.110Z,22.40
2017-09-29T20:50:41.942Z,22.77
2017-09-29T20:53:08.717Z,20.63
2017-09-29T20:55:35.494Z,22.60
2017-09-29T20:58:02.295Z,21.87
2017-09-29T21:00:29.854Z,23.12
2017-09-29T21:02:56.811Z,23.03
2017-09-29T21:05:23.611Z,23.60
2017-09-29T21:07:50.364Z,21.57
2017-09-29T21:10:17.124Z,23.10
2017-09-29T21:12:43.939Z,22.10
2017-09-29T21:15:11.014Z,23.83
2017-09-29T21:17:37.831Z,21.20
2017-09-29T21:20:04.612Z,25.40
2017-09-29T21:22:31.390Z,23.67
2017-09-29T21:24:58.141Z,23.70
2017-09-29T21:27:24.962Z,24.03
2017-09-29T21:29:51.755Z,24.00
2017-09-29T21:32:19.011Z,23.77
2017-09-29T21:34:45.810Z,22.43
2017-09-29T21:37:12.581Z,23.73
2017-09-29T21:39:39.877Z,24.30
2017-09-29T21:42:06.752Z,23.10
2017-09-29T21:44:34.105Z,21.97
2017-09-29T21:47:00.871Z,22.03
2017-09-29T21:49:27.655Z,23.87
2017-09-29T21:51:54.418Z,25.23
2017-09-29T21:54:21.191Z,21.67
2017-09-29T21:56:48.017Z,21.40
2017-09-29T21:59:14.796Z,24.60
2017-09-29T22:01:41.548Z,24.33
2017-09-29T22:04:08.353Z,23.73
2017-09-29T22:06:35.112Z,24.42
2017-09-29T22:09:01.886Z,22.40
2017-09-29T22:11:28.672Z,23.02
2017-09-29T22:13:55.483Z,23.48
2017-09-29T22:16:22.253Z,21.77
2017-09-29T22:18:49.066Z,25.12
2017-09-29T22:21:15.840Z,24.85
2017-09-29T22:23:42.603Z,22.33
2017-09-29T22:26:09.392Z,24.92
2017-09-29T22:28:36.151Z,23.80
2017-09-29T22:31:03.203Z,25.70
2017-09-29T22:33:30.003Z,24.70
2017-09-29T22:35:56.758Z,24.85
2017-09-29T22:38:23.520Z,24.70
2017-09-29T22:40:50.324Z,24.70
2017-09-29T22:43:17.091Z,24.55
2017-09-29T22:45:43.843Z,25.90
2017-09-29T22:48:10.626Z,26.17
2017-09-29T22:50:37.372Z,25.60
2017-09-29T22:53:04.130Z,24.97
2017-09-29T22:55:30.963Z,23.67
2017-09-29T22:57:57.712Z,23.70
2017-09-29T23:00:24.475Z,21.90
2017-09-29T23:02:51.285Z,22.70
2017-09-29T23:05:18.059Z,23.23
2017-09-29T23:07:44.861Z,21.10
2017-09-29T23:10:12.076Z,23.92
2017-09-29T23:12:38.820Z,23.00
2017-09-29T23:15:05.589Z,22.07
2017-09-29T23:17:32.376Z,23.37
2017-09-29T23:19:59.151Z,21.90
2017-09-29T23:22:26.732Z,23.92
2017-09-29T23:24:53.540Z,24.43
2017-09-29T23:27:20.351Z,23.20
2017-09-29T23:29:47.133Z,25.40
2017-09-29T23:32:13.936Z,26.70
2017-09-29T23:34:40.727Z,25.83
2017-09-29T23:37:07.482Z,22.97
2017-09-29T23:39:34.863Z,24.33
2017-09-29T23:42:01.622Z,22.53
2017-09-29T23:44:28.875Z,24.20
2017-09-29T23:46:55.665Z,22.50
2017-09-29T23:49:22.434Z,22.73
2017-09-29T23:51:49.200Z,26.20
2017-09-29T23:54:15.983Z,24.30
2017-09-29T23:56:42.743Z,22.57
2017-09-29T23:59:09.522Z,25.67
